• Join FlightAware (Why Join?)
  • Login
  • US Flag 
05:12AM EDT


 

Airport Tracker/Info


-or-


 

Live Flight TrackerFlight Track Log ✈ FDX1254 ✈ 04-Jun-2013 ✈ KPVD - KFWA

Flight Track Log - Related Links

Times and Time Zones

All times are in EDT time to prevent confusion due to time zone crossing. See the FDX1254 flight status page for this flight to view local times or setup timezone preferences in your user account.

Time Position Orientation Groundspeed Altitude Reporting Facility
EDT Latitude Longitude Course Direction KTS MPH feet Rate Location/Type
08:53PM 41.7360 -71.6000 300° West 265 305 7,000  Level FlightAware
08:53PM 41.7540 -71.6400 301° West 267 307 8,800 3,300 Climbing FlightAware
08:54PM 41.7790 -71.7030 298° West 292 336 10,900 2,280 Climbing FlightAware
08:55PM 41.8120 -71.7800 300° West 343 395 12,100 2,040 Climbing FlightAware
08:55PM 41.8490 -71.8670 300° West 365 420 14,000 2,700 Climbing FlightAware
08:56PM 41.8750 -71.9310 299° West 368 423 15,600 2,880 Climbing FlightAware
08:57PM 41.9120 -72.0190 299° West 371 427 17,700 2,580 Climbing FlightAware
08:57PM 41.9550 -72.1230 299° West 370 426 19,900 1,260 Climbing FlightAware
08:58PM 41.9890 -72.2070 299° West 370 426 19,900  Level FlightAware
08:59PM 42.0150 -72.2680 300° West 370 426 19,900 3,120 Level FlightAware
09:00PM 42.0820 -72.4330 299° West 398 458 24,900 2,820 Climbing FlightAware
09:02PM 42.1190 -72.6690 282° West 413 475 27,600 2,220 Climbing FlightAware
09:02PM 42.1190 -72.7890 270° West 417 480 30,200 3,300 Climbing FlightAware
09:03PM 42.1170 -72.8980 269° West 407 468 32,200 2,400 Climbing FlightAware
09:04PM 42.1160 -73.0100 269° West 409 471 33,700 2,040 Climbing FlightAware
09:04PM 42.1150 -73.1110 269° West 406 467 35,100 1,980 Climbing FlightAware
09:05PM 42.1130 -73.2020 268° West 407 468 36,300 1,680 Climbing FlightAware
09:06PM 42.1110 -73.3240 269° West 409 471 37,500 1,740 Climbing FlightAware
09:07PM 42.1094 -73.4473 269° West 399 459 39,200 1,860 Climbing FlightAware ADS-B
09:07PM 42.1081 -73.5246 269° West 381 438 40,000 720 Climbing FlightAware ADS-B
09:08PM 42.1068 -73.5961 269° West 370 426 40,000  Level FlightAware ADS-B
09:08PM 42.1055 -73.6658 269° West 377 434 40,000  Level FlightAware ADS-B
09:09PM 42.1041 -73.7410 269° West 381 438 40,000  Level FlightAware ADS-B
09:09PM 42.1027 -73.8127 269° West 385 443 40,000  Level FlightAware ADS-B
09:10PM 42.1013 -73.8848 269° West 389 448 40,000  Level FlightAware ADS-B
09:10PM 42.0997 -73.9602 268° West 392 451 40,000  Level FlightAware ADS-B
09:11PM 42.0980 -74.0409 268° West 395 455 40,000  Level FlightAware ADS-B
09:11PM 42.0964 -74.1151 268° West 400 460 40,000  Level FlightAware ADS-B
09:12PM 42.0944 -74.1972 268° West 401 461 40,000  Level FlightAware ADS-B
09:12PM 42.0927 -74.2719 268° West 401 461 40,000  Level FlightAware ADS-B
09:13PM 42.0907 -74.3543 268° West 401 461 40,000  Level FlightAware ADS-B
09:13PM 42.0886 -74.4337 268° West 401 461 40,000  Level FlightAware ADS-B
09:14PM 42.0858 -74.4685 264° West 402 463 40,000  Level FlightAware ADS-B
09:14PM 42.0764 -74.5247 257° West 403 464 40,000  Level FlightAware ADS-B
09:15PM 42.0554 -74.5971 249° West 404 465 40,000  Level FlightAware ADS-B
09:15PM 42.0336 -74.6690 248° West 404 465 40,000  Level FlightAware ADS-B
09:16PM 42.0116 -74.7382 247° West 404 465 40,000  Level FlightAware ADS-B
09:16PM 41.9886 -74.8097 247° West 402 463 40,000  Level FlightAware ADS-B
09:16PM 41.9747 -74.8663 252° West 400 460 40,000  Level FlightAware ADS-B
09:17PM 41.9707 -74.8878 256° West 399 459 40,000  Level FlightAware ADS-B
09:17PM 41.9648 -74.9315 260° West 398 458 40,000  Level FlightAware ADS-B
09:17PM 41.9556 -75.0221 262° West 398 458 40,000  Level FlightAware ADS-B
09:18PM 41.9469 -75.1050 262° West 398 458 40,000  Level FlightAware ADS-B
09:19PM 41.9390 -75.1853 262° West 395 455 40,000  Level FlightAware ADS-B
09:19PM 41.9314 -75.2605 262° West 394 453 40,000  Level FlightAware ADS-B
09:20PM 41.9241 -75.3356 263° West 393 452 40,000  Level FlightAware ADS-B
09:20PM 41.9167 -75.4107 262° West 394 453 40,000  Level FlightAware ADS-B
09:21PM 41.9081 -75.4952 262° West 394 453 40,000  Level FlightAware ADS-B
09:21PM 41.9000 -75.5726 262° West 394 453 40,000  Level FlightAware ADS-B
09:22PM 41.8913 -75.6570 262° West 393 452 40,000  Level FlightAware ADS-B
09:23PM 41.8814 -75.7532 262° West 392 451 40,000  Level FlightAware ADS-B
09:23PM 41.8737 -75.8279 262° West 393 452 40,000  Level FlightAware ADS-B
09:24PM 41.8650 -75.9098 262° West 393 452 40,000  Level FlightAware ADS-B
09:24PM 41.8573 -75.9821 262° West 394 453 40,000  Level FlightAware ADS-B
09:25PM 41.8491 -76.0596 262° West 395 455 40,000  Level FlightAware ADS-B
09:25PM 41.8410 -76.1347 262° West 396 456 40,000  Level FlightAware ADS-B
09:26PM 41.8328 -76.2098 262° West 397 457 40,000  Level FlightAware ADS-B
09:26PM 41.8245 -76.2852 262° West 397 457 40,000  Level FlightAware ADS-B
09:27PM 41.8166 -76.3604 262° West 397 457 40,000  Level FlightAware ADS-B
09:27PM 41.8042 -76.4724 262° West 398 458 40,000  Level FlightAware ADS-B
09:28PM 41.7961 -76.5455 262° West 398 458 40,000  Level FlightAware ADS-B
09:28PM 41.7879 -76.6185 261° West 398 458 40,000  Level FlightAware ADS-B
09:29PM 41.7786 -76.7014 261° West 398 458 40,000  Level FlightAware ADS-B
09:30PM 41.7700 -76.7769 261° West 399 459 40,000  Level FlightAware ADS-B
09:30PM 41.7593 -76.8697 261° West 400 460 40,000  Level FlightAware ADS-B
09:31PM 41.7495 -76.9551 261° West 400 460 40,000  Level FlightAware ADS-B
09:32PM 41.7366 -77.0675 261° West 401 461 40,000  Level FlightAware ADS-B
09:32PM 41.7249 -77.1678 261° West 401 461 40,000  Level FlightAware ADS-B
09:33PM 41.7070 -77.3200 261° West 400 460 40,000  Level FlightAware
09:34PM 41.6960 -77.4200 262° West 400 460 40,000  Level FlightAware
09:35PM 41.6900 -77.5160 265° West 401 461 40,000  Level FlightAware
09:35PM 41.6840 -77.6170 265° West 401 461 40,000  Level FlightAware
09:36PM 41.6780 -77.7290 266° West 402 463 40,000  Level FlightAware
09:37PM 41.6720 -77.8200 265° West 402 463 40,000  Level FlightAware
09:38PM 41.6650 -77.9390 266° West 403 464 40,000  Level FlightAware
09:38PM 41.6590 -78.0360 265° West 405 466 40,000  Level FlightAware
09:39PM 41.6530 -78.1510 266° West 406 467 40,000  Level FlightAware
09:40PM 41.6470 -78.2410 265° West 407 468 40,000  Level FlightAware
09:40PM 41.6400 -78.3520 265° West 409 471 40,000  Level FlightAware
09:41PM 41.6330 -78.4630 265° West 410 472 40,000  Level FlightAware
09:42PM 41.6260 -78.5640 265° West 410 472 40,000  Level FlightAware
09:42PM 41.6200 -78.6640 265° West 410 472 40,000  Level FlightAware
09:43PM 41.6110 -78.7910 265° West 410 472 40,000  Level FlightAware
09:44PM 41.6040 -78.8910 265° West 410 472 40,000  Level FlightAware
09:44PM 41.5980 -78.9770 265° West 410 472 40,000  Level FlightAware
09:45PM 41.5900 -79.1030 265° West 410 472 40,000  Level FlightAware
09:46PM 41.5830 -79.2020 265° West 410 472 40,000  Level FlightAware
09:47PM 41.5760 -79.3050 265° West 410 472 40,000  Level FlightAware
09:47PM 41.5680 -79.4060 264° West 411 473 40,000  Level FlightAware
09:48PM 41.5610 -79.5040 265° West 411 473 40,000  Level FlightAware
09:49PM 41.5510 -79.6380 264° West 411 473 40,000  Level FlightAware
09:49PM 41.5440 -79.7340 264° West 412 474 40,000  Level FlightAware
09:50PM 41.5380 -79.8140 264° West 412 474 40,000  Level FlightAware
09:51PM 41.5290 -79.9280 264° West 412 474 40,000  Level FlightAware
09:51PM 41.5200 -80.0440 264° West 412 474 40,000  Level FlightAware
09:52PM 41.5120 -80.1450 264° West 411 473 40,000  Level FlightAware
09:53PM 41.5030 -80.2550 264° West 409 471 40,000  Level FlightAware
09:54PM 41.4940 -80.3680 264° West 407 468 40,000  Level FlightAware
09:54PM 41.4850 -80.4770 264° West 404 465 40,000  Level FlightAware
09:55PM 41.4770 -80.5760 264° West 402 463 40,000  Level FlightAware
09:56PM 41.4690 -80.6740 264° West 401 461 40,000  Level FlightAware
09:56PM 41.4590 -80.7840 263° West 400 460 40,000  Level FlightAware
09:57PM 41.4510 -80.8820 264° West 399 459 40,000  Level FlightAware
09:58PM 41.4400 -81.0040 263° West 400 460 40,000  Level FlightAware
09:59PM 41.4320 -81.1040 264° West 400 460 40,000  Level FlightAware
09:59PM 41.4220 -81.2120 263° West 401 461 40,000  Level FlightAware
10:00PM 41.4140 -81.3000 263° West 401 461 40,000  Level FlightAware
10:01PM 41.4050 -81.4060 264° West 401 461 40,000  Level FlightAware
10:01PM 41.3950 -81.5140 263° West 401 461 40,000  Level FlightAware
10:02PM 41.3860 -81.6100 263° West 401 461 40,000  Level FlightAware
10:03PM 41.3750 -81.7250 263° West 401 461 40,000  Level FlightAware
10:03PM 41.3660 -81.8230 263° West 401 461 40,000  Level FlightAware
10:04PM 41.3560 -81.9250 263° West 401 461 40,000  Level FlightAware
10:05PM 41.3440 -82.0460 263° West 401 461 40,000  Level FlightAware
10:06PM 41.3340 -82.1600 263° West 400 460 40,000 -180 Level FlightAware
10:06PM 41.3240 -82.2620 263° West 399 459 39,800 -720 Descending FlightAware
10:07PM 41.3130 -82.3700 262° West 403 464 39,000 -900 Descending FlightAware
10:08PM 41.3040 -82.4650 263° West 399 459 38,600 -840 Descending FlightAware
10:08PM 41.2940 -82.5640 262° West 395 455 37,900 -1,140 Descending FlightAware
10:09PM 41.2820 -82.6750 262° West 397 457 37,000 -1,260 Descending FlightAware
10:10PM 41.2680 -82.8150 262° West 408 470 35,800 -1,320 Descending FlightAware
10:11PM 41.2630 -82.8620 262° West 411 473 35,400 -720 Descending FlightAware
10:11PM 41.2500 -82.9910 262° West 418 481 34,900 -1,020 Descending FlightAware
10:12PM 41.2360 -83.1170 262° West 431 496 33,800 -1,260 Descending FlightAware
10:13PM 41.2240 -83.2330 262° West 434 499 33,100 -960 Descending FlightAware
10:14PM 41.2130 -83.3380 262° West 435 501 32,500 -1,200 Descending FlightAware
10:14PM 41.2020 -83.4410 262° West 431 496 31,500 -2,820 Descending FlightAware
10:15PM 41.1900 -83.5440 261° West 438 504 28,900 -4,200 Descending FlightAware
10:16PM 41.1760 -83.6780 262° West 441 507 25,400 -3,900 Descending FlightAware
10:16PM 41.1640 -83.7790 261° West 430 495 23,200 -3,420 Descending FlightAware
10:17PM 41.1510 -83.8970 262° West 417 480 20,600 -3,360 Descending FlightAware
10:18PM 41.1400 -83.9940 261° West 405 466 18,400 -3,420 Descending FlightAware
10:18PM 41.1290 -84.0940 262° West 397 457 16,100 -3,300 Descending FlightAware
10:19PM 41.1170 -84.1980 261° West 383 441 13,900 -2,940 Descending FlightAware
10:20PM 41.1060 -84.2940 261° West 372 428 11,900 -2,220 Descending FlightAware
10:21PM 41.0950 -84.3860 261° West 359 413 10,800 -780 Descending FlightAware
10:21PM 41.0830 -84.4810 261° West 352 405 10,800  Level FlightAware
10:22PM 41.0740 -84.5590 261° West 299 344 10,800 -120 Level FlightAware
10:23PM 41.0660 -84.6440 263° West 272 313 10,700 -1,200 Descending FlightAware
10:23PM 41.0650 -84.6980 269° West 272 313 9,100 -1,740 Descending FlightAware
10:24PM 41.0630 -84.7400 266° West 272 313 9,000 -120 Descending FlightAware
10:24PM 41.0610 -84.7730 265° West 272 313 9,000  Level FlightAware
10:25PM 41.0600 -84.8070 268° West 272 313 9,000  Level FlightAware
10:25PM 41.0580 -84.8330 264° West 272 313 9,000  Level FlightAware
10:25PM 41.0560 -84.8680 266° West 272 313 9,000 -4,140 Level FlightAware
10:26PM 41.0503 -84.9214 266° West 253 291 5,000 -3,300 Descending Chicago Center
10:27PM 41.0456 -84.9989 265° West 235 270 3,800 -960 Descending Chicago Center
10:28PM 41.0417 -85.0664 266° West 211 243 3,100 -960 Descending Chicago Center
10:29PM 41.0269 -85.1289 253° West 171 197 1,900 -840 Descending Chicago Center
10:30PM 41.0042 -85.1594 225° Southwest 157 181 1,400 -540 Descending Chicago Center